Flight Track Log - Related Links

Times and Time Zones

All times are in EDT time to prevent confusion due to time zone crossing. See the SWA943 flight status page for this flight to view local times or setup timezone preferences in your user account.

Time Position Orientation Groundspeed Altitude Reporting Facility
EDT Latitude Longitude Course Direction KTS MPH feet Rate Location/Type
Sun 06:52:36 AM 39.7000 -86.3167 270° West 153 176 1,500  Level Indianapolis TRACON
Sun 06:53:06 AM 39.7000 -86.3333 270° West 151 174 2,500 1,765 Climbing Indianapolis TRACON
Sun 06:54:01 AM 39.6678 -86.3833 230° Southwest 188 216 4,000 2,191 Climbing Indianapolis Center
Sun 06:55:01 AM 39.6358 -86.4569 241° Southwest 228 262 6,700 3,174 Climbing Indianapolis Center
Sun 06:56:02 AM 39.5989 -86.5414 240° Southwest 259 298 10,400 2,678 Climbing Indianapolis Center
Sun 06:57:02 AM 39.5508 -86.6372 237° Southwest 318 366 12,100 2,281 Climbing Indianapolis Center
Sun 06:58:03 AM 39.4717 -86.7172 218° Southwest 359 413 15,000 2,579 Climbing Indianapolis Center
Sun 06:59:03 AM 39.3783 -86.7825 208° Southwest 378 435 17,300 2,281 Climbing Indianapolis Center
Sun 07:00:04 AM 39.2806 -86.8525 209° Southwest 397 457 19,600 2,231 Climbing Indianapolis Center
Sun 07:01:04 AM 39.1764 -86.9239 208° Southwest 418 481 21,800 2,033 Climbing Indianapolis Center
Sun 07:02:05 AM 39.0733 -86.9936 208° Southwest 432 497 23,700 2,115 Climbing Indianapolis Center
Sun 07:03:06 AM 38.9400 -87.0844 208° Southwest 446 513 26,100 2,083 Climbing Indianapolis Center
Sun 07:04:06 AM 38.8269 -87.1606 208° Southwest 453 521 27,900 1,736 Climbing Indianapolis Center
Sun 07:05:07 AM 38.7167 -87.2467 211° Southwest 461 531 29,600 1,934 Climbing Indianapolis Center
Sun 07:06:07 AM 38.6086 -87.3344 212° Southwest 462 532 31,800 1,934 Climbing Indianapolis Center
Sun 07:07:08 AM 38.5025 -87.4169 211° Southwest 456 525 33,500 1,537 Climbing Indianapolis Center
Sun 07:08:08 AM 38.3958 -87.4994 211° Southwest 455 524 34,900 1,438 Climbing Indianapolis Center
Sun 07:09:09 AM 38.2886 -87.5811 211° Southwest 455 524 36,400 1,525 Climbing Indianapolis Center
Sun 07:10:10 AM 38.1828 -87.6639 212° Southwest 454 522 38,000 787 Climbing Indianapolis Center
Sun 07:11:11 AM 38.0794 -87.7425 211° Southwest 439 505 38,000  Level Indianapolis Center
Sun 07:12:11 AM 37.9750 -87.8225 211° Southwest 439 505 38,000  Level Indianapolis Center
Sun 07:13:12 AM 37.8706 -87.9003 210° Southwest 438 504 38,000  Level Indianapolis Center
Sun 07:14:13 AM 37.7667 -87.9806 211° Southwest 437 503 38,000  Level Indianapolis Center
Sun 07:15:13 AM 37.6639 -88.0586 211° Southwest 437 503 38,000  Level Indianapolis Center
Sun 07:15:59 AM 37.5769 -88.1239 211° Southwest 437 503 38,000  Level Memphis Center
Sun 07:16:59 AM 37.4778 -88.2106 215° Southwest 436 502 38,000  Level Memphis Center
Sun 07:18:00 AM 37.3778 -88.2978 215° Southwest 436 502 38,000  Level Memphis Center
Sun 07:19:00 AM 37.2783 -88.3861 215° Southwest 436 502 38,000  Level Memphis Center
Sun 07:20:01 AM 37.1781 -88.4733 215° Southwest 436 502 38,000  Level Memphis Center
Sun 07:21:01 AM 37.0781 -88.5611 215° Southwest 436 502 38,000  Level Memphis Center
Sun 07:22:02 AM 36.9778 -88.6489 215° Southwest 437 503 38,000  Level Memphis Center
Sun 07:23:02 AM 36.8769 -88.7350 214° Southwest 437 503 38,000  Level Memphis Center
Sun 07:24:03 AM 36.7767 -88.8225 215° Southwest 437 503 38,000  Level Memphis Center
Sun 07:25:03 AM 36.6753 -88.9092 214° Southwest 438 504 38,000  Level Memphis Center
Sun 07:26:04 AM 36.5742 -88.9958 215° Southwest 438 504 38,000  Level Memphis Center
Sun 07:27:05 AM 36.4722 -89.0822 214° Southwest 438 504 38,000  Level Memphis Center
Sun 07:28:05 AM 36.3678 -89.1656 213° Southwest 439 505 38,000  Level Memphis Center
Sun 07:29:06 AM 36.2611 -89.2581 215° Southwest 447 514 38,000  Level Memphis Center
Sun 07:30:07 AM 36.1583 -89.3472 215° Southwest 447 514 38,000  Level Memphis Center
Sun 07:31:07 AM 36.0586 -89.4333 215° Southwest 441 507 38,000  Level Memphis Center
Sun 07:32:08 AM 35.9586 -89.5183 215° Southwest 436 502 38,000  Level Memphis Center
Sun 07:33:09 AM 35.8561 -89.6050 214° Southwest 438 504 38,000  Level Memphis Center
Sun 07:34:09 AM 35.7536 -89.6908 214° Southwest 440 506 38,000  Level Memphis Center
Sun 07:35:10 AM 35.6550 -89.7725 214° Southwest 440 506 38,000  Level Memphis Center
Sun 07:36:11 AM 35.5533 -89.8586 215° Southwest 442 509 38,000  Level Memphis Center
Sun 07:37:12 AM 35.4500 -89.9433 214° Southwest 443 510 38,000  Level Memphis Center
Sun 07:38:12 AM 35.3275 -90.0450 214° Southwest 444 511 38,000  Level Memphis Center
Sun 07:39:13 AM 35.2239 -90.1294 214° Southwest 445 512 38,000  Level Memphis Center
Sun 07:40:14 AM 35.1225 -90.2142 214° Southwest 446 513 38,000  Level Memphis Center
Sun 07:41:15 AM 35.0192 -90.2978 214° Southwest 446 513 38,000  Level Memphis Center
Sun 07:42:16 AM 34.9169 -90.3814 214° Southwest 446 513 38,000  Level Memphis Center
Sun 07:43:17 AM 34.8136 -90.4639 213° Southwest 446 513 38,000  Level Memphis Center
Sun 07:44:18 AM 34.7114 -90.5469 214° Southwest 446 513 38,000  Level Memphis Center
Sun 07:45:18 AM 34.6089 -90.6303 214° Southwest 446 513 38,000  Level Memphis Center
Sun 07:46:19 AM 34.5056 -90.7122 213° Southwest 446 513 38,000  Level Memphis Center
Sun 07:47:20 AM 34.4017 -90.7961 214° Southwest 447 514 38,000  Level Memphis Center
Sun 07:48:21 AM 34.2764 -90.8961 213° Southwest 450 518 38,000  Level Memphis Center
Sun 07:49:22 AM 34.1703 -90.9800 213° Southwest 450 518 38,000  Level Memphis Center
Sun 07:50:23 AM 34.0650 -91.0639 213° Southwest 453 521 38,000  Level Memphis Center
Sun 07:51:24 AM 33.9608 -91.1478 214° Southwest 453 521 38,000  Level Memphis Center
Sun 07:52:25 AM 33.8547 -91.2294 213° Southwest 453 521 38,000  Level Memphis Center
Sun 07:53:26 AM 33.7419 -91.3203 214° Southwest 453 521 38,000  Level Memphis Center
Sun 07:54:27 AM 33.6369 -91.4006 212° Southwest 453 521 38,000  Level Memphis Center
Sun 07:55:28 AM 33.5331 -91.4833 214° Southwest 453 521 38,000  Level Memphis Center
Sun 07:56:29 AM 33.4278 -91.5644 213° Southwest 453 521 38,000  Level Memphis Center
Sun 07:57:30 AM 33.3239 -91.6456 213° Southwest 453 521 38,000  Level Memphis Center
Sun 07:58:31 AM 33.2200 -91.7264 213° Southwest 452 520 38,000  Level Memphis Center
Sun 07:59:32 AM 33.1150 -91.8075 213° Southwest 452 520 38,000  Level Memphis Center
Sun 08:00:18 AM 33.0214 -91.8797 213° Southwest 452 520 38,000  Level Fort Worth Center
Sun 08:01:19 AM 32.9153 -91.9606 213° Southwest 454 522 38,000  Level Fort Worth Center
Sun 08:02:20 AM 32.8092 -92.0422 213° Southwest 453 521 38,000  Level Fort Worth Center
Sun 08:03:20 AM 32.7044 -92.1242 213° Southwest 451 519 38,000  Level Fort Worth Center
Sun 08:04:21 AM 32.6044 -92.2039 214° Southwest 452 520 38,000  Level Fort Worth Center
Sun 08:05:22 AM 32.4986 -92.2836 212° Southwest 453 521 38,000  Level Fort Worth Center
Sun 08:06:23 AM 32.3933 -92.3644 213° Southwest 452 520 38,000  Level Fort Worth Center
Sun 08:07:24 AM 32.2878 -92.4442 213° Southwest 452 520 38,000  Level Fort Worth Center
Sun 08:08:25 AM 32.1608 -92.5389 212° Southwest 451 519 38,000  Level Fort Worth Center
Sun 08:09:26 AM 32.0561 -92.6181 213° Southwest 451 519 38,000  Level Fort Worth Center
Sun 08:10:27 AM 31.9525 -92.6989 214° Southwest 451 519 38,000  Level Fort Worth Center
Sun 08:11:28 AM 31.8578 -92.7925 220° Southwest 450 518 38,000  Level Fort Worth Center
Sun 08:12:29 AM 31.7608 -92.8842 219° Southwest 451 519 38,000  Level Fort Worth Center
Sun 08:13:30 AM 31.6653 -92.9767 219° Southwest 452 520 38,000  Level Fort Worth Center
Sun 08:14:31 AM 31.5678 -93.0700 219° Southwest 454 522 38,000  Level Fort Worth Center
Sun 08:15:32 AM 31.4706 -93.1625 219° Southwest 456 525 38,000  Level Fort Worth Center
Sun 08:16:33 AM 31.3742 -93.2550 219° Southwest 453 521 38,000  Level Fort Worth Center
Sun 08:17:34 AM 31.2569 -93.3664 219° Southwest 453 521 38,000  Level Fort Worth Center
Sun 08:18:35 AM 31.1600 -93.4586 219° Southwest 453 521 38,000  Level Fort Worth Center
Sun 08:19:36 AM 31.0625 -93.5506 219° Southwest 453 521 38,000  Level Fort Worth Center
Sun 08:20:37 AM 30.9644 -93.6428 219° Southwest 453 521 38,000  Level Fort Worth Center
Sun 08:21:38 AM 30.8678 -93.7350 219° Southwest 453 521 38,000 -367 Level Fort Worth Center
Sun 08:23:04 AM 30.7358 -93.8600 219° Southwest 452 520 37,100 -1,708 Descending Houston Center
Sun 08:23:55 AM 30.6364 -93.9544 219° Southwest 460 529 34,100 -2,951 Descending Houston Center
Sun 08:24:05 AM 30.6369 -93.9528 69° East 457 526 34,100 -3,000 Level Houston Center
Sun 08:24:25 AM 30.5864 -94.0000 219° Southwest 464 534 32,600 -3,836 Descending Houston Center
Sun 08:25:06 AM 30.5144 -94.0675 219° Southwest 472 543 30,200 -3,224 Descending Houston Center
Sun 08:25:32 AM 30.4694 -94.1106 220° Southwest 485 558 29,000 -2,656 Descending Houston Center
Sun 08:26:07 AM 30.4100 -94.1650 218° Southwest 483 556 27,500 -2,597 Descending Houston Center
Sun 08:26:39 AM 30.3539 -94.2181 219° Southwest 477 549 26,100 -2,459 Descending Houston Center
Sun 08:27:08 AM 30.3097 -94.2572 217° Southwest 470 541 25,000 -1,967 Descending Houston Center
Sun 08:27:40 AM 30.2558 -94.3086 219° Southwest 450 518 24,100 -1,475 Descending Houston Center
Sun 08:28:09 AM 30.2272 -94.3542 234° Southwest 429 494 23,500 -1,770 Descending Houston Center
Sun 08:28:41 AM 30.2047 -94.4289 251° West 407 468 22,300 -2,066 Descending Houston Center
Sun 08:29:10 AM 30.1925 -94.4783 254° West 408 470 21,400 -2,066 Descending Houston Center
Sun 08:29:42 AM 30.1708 -94.5567 252° West 397 457 20,200 -1,839 Descending Houston Center
Sun 08:30:12 AM 30.1606 -94.5936 252° West 399 459 19,500 -1,612 Descending Houston Center
Sun 08:30:49 AM 30.1356 -94.6894 253° West 400 460 18,400 -1,574 Descending Houston Center
Sun 08:31:13 AM 30.1286 -94.7156 253° West 398 458 17,900 -2,400 Descending Houston Center
Sun 08:31:49 AM 30.1028 -94.8094 252° West 398 458 16,000 -2,852 Descending Houston Center
Sun 08:32:14 AM 30.0894 -94.8597 253° West 398 458 15,000 -1,935 Descending Houston Center
Sun 08:32:51 AM 30.0686 -94.9347 252° West 384 442 14,000 -984 Descending Houston Center
Sun 08:33:15 AM 30.0581 -94.9744 253° West 382 440 14,000 -806 Level Houston Center
Sun 08:33:58 AM 30.0358 -95.0547 252° West 354 407 13,100 -1,475 Descending Houston Center
Sun 08:34:16 AM 30.0294 -95.0811 254° West 357 411 12,500 -2,222 Descending Houston Center
Sun 08:34:52 AM 30.0025 -95.1481 245° Southwest 343 395 11,100 -1,967 Descending Houston Center
Sun 08:35:17 AM 29.9761 -95.1658 210° Southwest 348 400 10,500 -964 Descending Houston Center
Sun 08:35:48 AM 29.9258 -95.1817 195° South 320 368 10,200 -484 Descending Houston Center
Sun 08:36:19 AM 29.8908 -95.1914 194° South 324 373 10,000 -1,000 Descending Houston Center
Sun 08:36:54 AM 29.8358 -95.2069 194° South 289 333 9,100 -1,377 Descending Houston Center
Sun 08:37:20 AM 29.8125 -95.2158 198° South 299 344 8,600 -1,475 Descending Houston Center
Sun 08:37:55 AM 29.7564 -95.2336 195° South 288 331 7,600 -1,475 Descending Houston Center
Sun 08:38:21 AM 29.7361 -95.2397 195° South 289 333 7,100 -1,548 Descending Houston Center
Sun 08:38:57 AM 29.6794 -95.2428 183° South 274 315 6,000 -1,475 Descending Houston Center
Sun 08:39:22 AM 29.6603 -95.2425 179° South 280 322 5,600 -1,082 Descending Houston Center
Sun 08:39:58 AM 29.6039 -95.2425 180° South 254 292 4,900 -871 Descending Houston Center
Sun 08:40:24 AM 29.5786 -95.2417 178° South 255 293 4,700 -627 Descending Houston Center
Sun 08:41:05 AM 29.5475 -95.2708 219° Southwest 215 247 4,200 -1,180 Descending Houston Center
Sun 08:41:25 AM 29.5517 -95.2889 285° West 224 258 3,500 -2,361 Descending Houston Center
Sun 08:42:06 AM 29.5806 -95.3317 308° West 231 266 1,800 -2,066 Descending Houston Center
Sun 08:42:26 AM 29.5975 -95.3356 349° North 226 260 1,400 -982 Descending Houston Center
Sun 08:43:01 AM 29.6183 -95.3081 49° Northeast 162 186 900 -984 Descending Houston Center
Sun 08:43:27 AM 29.6297 -95.2953 44° Northeast 190 219 400 -1,154 Descending Houston Center

Login

Don't have an account? Register now (free) for customized features, flight alerts, and more!